Time;durP1;ratioP1;P1;durP2;ratioP2;P2;SDS_P1;SDS_P2;PMS_P1;PMS_P2;Temp;Humidity;BMP_temperature;BMP_pressure;BME280_temperature;BME280_humidity;BME280_pressure;Samples;Min_cycle;Max_cycle;Signal;HPM_P1;HPM_P2
2022/09/22 00:05:30;;;;;;;15.43;8.63;;;;;;;9.18;100.00;102403.94;20809227;28;20089;-65
2022/09/22 00:15:52;;;;;;;20.00;9.10;;;;;;;9.07;100.00;102406.06;20803339;28;20041;-64
2022/09/22 00:26:20;;;;;;;17.35;9.30;;;;;;;8.91;100.00;102391.84;20811010;28;20050;-65
2022/09/22 00:36:42;;;;;;;19.50;9.55;;;;;;;8.88;100.00;102399.75;20813156;28;20077;-64
2022/09/22 00:47:19;;;;;;;17.42;9.15;;;;;;;8.87;100.00;102392.00;20803486;28;20111;-64
2022/09/22 00:57:43;;;;;;;15.60;8.55;;;;;;;8.80;100.00;102383.56;20806767;28;20095;-65
2022/09/22 01:08:06;;;;;;;11.73;6.85;;;;;;;8.67;100.00;102382.25;20814326;28;20383;-65
2022/09/22 01:18:49;;;;;;;15.30;6.63;;;;;;;8.62;100.00;102368.53;20806906;28;20139;-64
2022/09/22 01:29:49;;;;;;;10.43;5.63;;;;;;;8.63;100.00;102352.06;20811414;28;20077;-64
2022/09/22 01:40:18;;;;;;;10.18;5.40;;;;;;;8.60;100.00;102352.13;20801045;28;20099;-65
2022/09/22 01:51:03;;;;;;;10.13;5.28;;;;;;;8.48;100.00;102338.72;20802142;28;20574;-65
2022/09/22 02:01:32;;;;;;;8.10;5.20;;;;;;;8.54;100.00;102341.09;20805130;28;20045;-65
2022/09/22 02:11:53;;;;;;;16.23;5.63;;;;;;;8.46;100.00;102326.66;20811841;28;20069;-65
2022/09/22 02:22:15;;;;;;;10.90;5.70;;;;;;;8.39;100.00;102322.56;20792022;28;20049;-65
2022/09/22 02:32:42;;;;;;;9.40;4.77;;;;;;;8.21;100.00;102325.72;20808584;28;20049;-65
2022/09/22 02:43:20;;;;;;;10.60;4.90;;;;;;;8.23;100.00;102318.75;20800657;28;20041;-65
2022/09/22 02:53:41;;;;;;;11.65;4.78;;;;;;;8.14;100.00;102314.63;20804429;28;20049;-64
2022/09/22 03:04:04;;;;;;;10.37;5.03;;;;;;;8.07;100.00;102304.50;20799300;28;20038;-65
2022/09/22 03:14:25;;;;;;;11.73;5.75;;;;;;;7.99;100.00;102298.69;20793496;28;20481;-65
2022/09/22 03:24:47;;;;;;;9.85;5.35;;;;;;;7.93;100.00;102293.69;20798571;28;20057;-65
2022/09/22 03:35:09;;;;;;;15.63;6.50;;;;;;;7.81;100.00;102283.66;20816611;28;20091;-65
2022/09/22 03:45:30;;;;;;;11.33;6.70;;;;;;;7.69;100.00;102279.69;20819586;28;20061;-65
2022/09/22 03:55:52;;;;;;;12.40;6.20;;;;;;;7.73;100.00;102280.44;20817946;28;20354;-68
2022/09/22 04:06:13;;;;;;;12.73;5.87;;;;;;;7.73;100.00;102275.25;20818370;28;20092;-66
2022/09/22 04:16:35;;;;;;;7.85;5.22;;;;;;;7.82;100.00;102270.63;20815389;28;20553;-65
2022/09/22 04:26:56;;;;;;;17.63;5.43;;;;;;;7.77;100.00;102261.28;20813707;28;20097;-65
2022/09/22 04:37:38;;;;;;;9.30;5.20;;;;;;;7.73;100.00;102264.84;20811890;28;20323;-65
2022/09/22 04:48:00;;;;;;;8.03;4.13;;;;;;;7.78;100.00;102263.84;20813664;28;20272;-65
2022/09/22 04:58:21;;;;;;;10.00;4.45;;;;;;;7.81;100.00;102265.50;20836978;28;20053;-64
2022/09/22 05:08:43;;;;;;;11.38;4.43;;;;;;;7.80;100.00;102261.19;20820546;28;20057;-65
2022/09/22 05:19:04;;;;;;;10.23;3.70;;;;;;;7.77;100.00;102261.28;20815386;28;20498;-65
2022/09/22 05:29:26;;;;;;;7.13;4.10;;;;;;;7.86;100.00;102255.81;20806864;28;20604;-65
2022/09/22 05:39:48;;;;;;;9.93;4.82;;;;;;;7.85;100.00;102265.34;20796350;28;20041;-65
2022/09/22 05:50:13;;;;;;;11.77;4.40;;;;;;;7.89;100.00;102266.09;20803648;28;20046;-61
2022/09/22 06:00:35;;;;;;;14.65;4.90;;;;;;;7.98;100.00;102276.22;20834953;28;20046;-62
2022/09/22 06:10:57;;;;;;;6.60;4.40;;;;;;;8.10;100.00;102275.84;20801499;28;20482;-62
2022/09/22 06:21:19;;;;;;;11.02;5.00;;;;;;;8.23;100.00;102279.78;20807297;28;20591;-63
2022/09/22 06:31:41;;;;;;;6.35;4.55;;;;;;;8.39;100.00;102273.19;20803001;28;20041;-63
2022/09/22 06:42:06;;;;;;;8.23;5.20;;;;;;;8.74;100.00;102271.94;20806902;28;20081;-63
2022/09/22 06:52:27;;;;;;;17.08;5.18;;;;;;;9.05;100.00;102269.16;20805586;28;20046;-64
2022/09/22 07:02:49;;;;;;;10.10;5.10;;;;;;;9.30;100.00;102267.38;20821646;28;20382;-63
2022/09/22 07:13:10;;;;;;;8.47;4.73;;;;;;;9.56;100.00;102266.34;20819410;28;20045;-62
2022/09/22 07:23:35;;;;;;;11.73;4.73;;;;;;;9.79;100.00;102273.28;20813386;28;20041;-62
2022/09/22 07:34:00;;;;;;;12.02;4.25;;;;;;;9.95;100.00;102264.84;20816706;28;20115;-62
2022/09/22 07:55:05;;;;;;;7.85;3.75;;;;;;;10.57;100.00;102269.25;20819914;28;20536;-63
2022/09/22 08:05:28;;;;;;;6.90;3.85;;;;;;;10.78;100.00;102264.88;20815638;28;20053;-62
2022/09/22 08:15:53;;;;;;;7.38;3.55;;;;;;;11.26;98.54;102271.44;20812586;28;20490;-63
2022/09/22 08:26:15;;;;;;;9.18;3.35;;;;;;;11.42;97.52;102269.84;20816859;28;20045;-64
2022/09/22 08:36:37;;;;;;;7.83;2.80;;;;;;;11.81;95.63;102281.97;20818789;28;20053;-63
2022/09/22 08:47:00;;;;;;;4.80;2.57;;;;;;;12.29;91.04;102276.16;20813610;28;20072;-62
2022/09/22 08:57:59;;;;;;;5.90;2.20;;;;;;;12.58;88.69;102269.44;20810446;28;20045;-63
2022/09/22 09:08:36;;;;;;;5.10;2.17;;;;;;;12.94;86.45;102267.63;20803184;28;20478;-63
2022/09/22 09:19:25;;;;;;;5.32;2.13;;;;;;;13.13;85.83;102268.34;20805627;28;20050;-63
2022/09/22 09:29:56;;;;;;;;;;;;;;;13.68;82.11;102254.03;20810727;28;20675;-62
2022/09/22 09:40:18;;;;;;;;;;;;;;;13.98;79.04;102254.91;20806173;28;19925;-62
2022/09/22 09:50:40;;;;;;;;;;;;;;;14.22;76.15;102243.94;20803768;28;19925;-63
2022/09/22 10:01:04;;;;;;;;;;;;;;;14.17;78.51;102234.63;20805998;28;19940;-63
2022/09/22 10:11:30;;;;;;;;;;;;;;;14.56;76.47;102228.75;20804125;28;19928;-62
2022/09/22 10:21:52;;;;;;;;;;;;;;;14.49;75.17;102219.59;20798016;28;19928;-62
2022/09/22 10:32:14;;;;;;;;;;;;;;;14.80;72.25;102216.84;20810275;28;19975;-62
2022/09/22 10:42:36;;;;;;;;;;;;;;;15.64;67.50;102207.19;20811909;28;19939;-63
2022/09/22 10:53:07;;;;;;;;;;;;;;;15.36;66.59;102201.13;20818348;28;20271;-62
2022/09/22 11:03:29;;;;;;;;;;;;;;;15.76;64.82;102197.63;20822630;28;20278;-64
2022/09/22 11:13:58;;;;;;;;;;;;;;;15.50;67.06;102195.84;20820079;28;19929;-62
2022/09/22 11:24:20;;;;;;;;;;;;;;;15.65;71.34;102197.50;20816108;28;19972;-62
2022/09/22 11:34:41;;;;;;;;;;;;;;;15.78;64.82;102185.25;20817003;28;19983;-63
2022/09/22 11:45:12;;;;;;;;;;;;;;;15.82;65.51;102173.59;20810476;28;19924;-62
2022/09/22 11:55:44;;;;;;;;;;;;;;;15.40;70.06;102155.31;20817531;28;19974;-63
2022/09/22 12:06:09;;;;;;;;;;;;;;;16.44;64.37;102131.66;20814575;28;19925;-62
2022/09/22 12:16:38;;;;;;;;;;;;;;;16.33;66.29;102133.34;20808580;28;20427;-62
2022/09/22 12:27:09;;;;;;;;;;;;;;;16.81;59.43;102120.31;20802454;28;19975;-62
2022/09/22 12:37:32;;;;;;;;;;;;;;;16.42;62.47;102113.34;20807765;28;19951;-63
2022/09/22 12:47:55;;;;;;;;;;;;;;;16.24;69.04;102102.34;20836563;28;20340;-63
2022/09/22 12:58:20;;;;;;;;;;;;;;;16.54;60.21;102090.59;20794523;28;19929;-65
2022/09/22 13:08:41;;;;;;;;;;;;;;;17.26;61.42;102086.25;20798390;28;19932;-64
2022/09/22 13:19:06;;;;;;;;;;;;;;;17.07;62.55;102079.78;20788100;28;19998;-63
2022/09/22 13:29:28;;;;;;;;;;;;;;;17.48;56.74;102065.31;20788662;28;20515;-63
2022/09/22 13:39:51;;;;;;;;;;;;;;;17.21;59.94;102066.47;20813795;28;19924;-63
2022/09/22 13:50:19;;;;;;;;;;;;;;;17.08;64.40;102063.03;20784983;28;19925;-63
2022/09/22 14:00:47;;;;;;;;;;;;;;;16.86;61.46;102049.69;20788672;28;19927;-63
2022/09/22 14:11:31;;;;;;;3.88;1.65;;;;;;;17.32;59.61;102041.00;20789837;28;20011;-63
2022/09/22 14:21:58;;;;;;;5.00;1.80;;;;;;;16.96;66.14;102024.34;20794709;28;20056;-63
2022/09/22 14:32:29;;;;;;;6.22;2.80;;;;;;;17.42;65.23;102016.50;20786502;28;20077;-63
2022/09/22 14:42:56;;;;;;;;;;;;;;;17.41;60.14;102011.34;20790039;28;20054;-63
2022/09/22 14:53:21;;;;;;;3.85;1.42;;;;;;;17.81;53.96;101997.72;20782470;28;20020;-63
2022/09/22 15:03:51;;;;;;;3.85;1.10;;;;;;;17.89;53.02;101986.56;20783711;28;20049;-63
2022/09/22 15:14:32;;;;;;;2.37;1.27;;;;;;;17.63;55.28;101977.13;20779623;28;20104;-63
2022/09/22 15:24:56;;;;;;;2.45;1.20;;;;;;;17.45;63.00;101975.91;20803665;28;20057;-63
2022/09/22 15:35:17;;;;;;;3.78;1.35;;;;;;;18.13;56.94;101953.84;20803075;28;20290;-64
2022/09/22 15:45:46;;;;;;;4.68;1.67;;;;;;;17.95;61.91;101954.44;20799241;28;20046;-63
2022/09/22 15:56:14;;;;;;;8.13;0.98;;;;;;;18.11;55.10;101944.38;20798699;28;20057;-63
2022/09/22 16:06:37;;;;;;;2.63;0.90;;;;;;;17.88;59.53;101932.13;20799332;28;20053;-63
2022/09/22 16:16:59;;;;;;;3.13;1.02;;;;;;;17.46;60.08;101924.84;20798159;28;20089;-63
2022/09/22 16:27:20;;;;;;;7.20;1.10;;;;;;;16.97;61.70;101918.88;20799138;28;20401;-64
2022/09/22 16:37:42;;;;;;;2.47;1.27;;;;;;;16.69;65.89;101916.59;20798555;28;20100;-63
2022/09/22 16:48:04;;;;;;;3.35;1.10;;;;;;;16.49;66.78;101909.25;20792733;28;20073;-63
2022/09/22 16:58:25;;;;;;;4.57;1.30;;;;;;;16.13;68.89;101915.44;20799675;28;20082;-63
2022/09/22 17:08:47;;;;;;;3.20;1.45;;;;;;;16.07;70.05;101914.09;20797163;28;20095;-63
2022/09/22 17:19:15;;;;;;;3.42;1.40;;;;;;;15.57;71.56;101916.72;20793332;28;20081;-63
2022/09/22 17:29:37;;;;;;;2.95;1.45;;;;;;;15.16;72.60;101902.00;20795916;28;20441;-63
2022/09/22 17:39:58;;;;;;;8.60;1.90;;;;;;;15.03;76.38;101913.44;20797578;28;20091;-63
2022/09/22 18:01:05;;;;;;;6.57;2.20;;;;;;;14.54;81.82;101910.50;20789634;28;20407;-64
2022/09/22 18:11:26;;;;;;;8.65;2.28;;;;;;;14.39;82.29;101909.78;20802047;28;20119;-64
2022/09/22 18:21:47;;;;;;;;;;;;;;;14.14;84.18;101906.97;20807366;28;20117;-64
2022/09/22 18:32:09;;;;;;;12.43;3.27;;;;;;;14.08;82.80;101908.19;20800642;28;19979;-64
2022/09/22 18:42:31;;;;;;;;;;;;;;;13.81;84.22;101901.19;20806464;28;20330;-64
2022/09/22 18:52:55;;;;;;;26.58;3.30;;;;;;;13.68;86.15;101910.72;20808436;28;20412;-64
2022/09/22 19:03:16;;;;;;;;;;;;;;;13.48;86.68;101909.25;20814855;28;20050;-63
2022/09/22 19:13:38;;;;;;;;;;;;;;;13.37;87.47;101900.38;20831538;28;19921;-63
2022/09/22 19:24:04;;;;;;;;;;;;;;;13.27;86.73;101888.72;20813524;28;19921;-64
2022/09/22 19:34:25;;;;;;;;;;;;;;;13.15;86.89;101899.94;20816885;28;20518;-63
2022/09/22 19:44:47;;;;;;;;;;;;;;;12.97;88.93;101894.91;20817734;28;20377;-63
2022/09/22 19:55:10;;;;;;;;;;;;;;;12.78;90.59;101889.00;20818928;28;19929;-63
2022/09/22 20:05:33;;;;;;;;;;;;;;;12.89;89.69;101877.03;20848253;28;19921;-63
2022/09/22 20:15:55;;;;;;;;;;;;;;;12.80;90.53;101874.91;20811916;28;19921;-63
2022/09/22 20:26:18;;;;;;;;;;;;;;;12.67;90.61;101880.91;20812640;28;19976;-63
2022/09/22 20:36:41;;;;;;;;;;;;;;;12.50;90.73;101873.16;20812554;28;19928;-64
2022/09/22 20:47:04;;;;;;;;;;;;;;;12.51;91.47;101857.41;20815442;28;19936;-63
2022/09/22 20:57:29;;;;;;;;;;;;;;;12.45;92.39;101859.50;20802741;28;19991;-63
2022/09/22 21:10:33;;;;;;;;;;;;;;;12.43;92.22;101855.28;20814436;28;20449;-63
2022/09/22 21:18:33;;;;;;;;;;;;;;;12.37;91.54;101850.41;20807742;28;19921;-63
2022/09/22 21:28:55;;;;;;;;;;;;;;;12.26;91.60;101843.16;20808991;28;19971;-63
2022/09/22 21:39:16;;;;;;;;;;;;;;;12.20;91.03;101835.66;20803677;28;19921;-63
2022/09/22 21:49:38;;;;;;;;;;;;;;;12.03;92.16;101824.44;20809588;28;19925;-63
2022/09/22 21:59:59;;;;;;;;;;;;;;;11.84;92.27;101815.91;20809310;28;19932;-63
2022/09/22 22:10:23;;;;;;;;;;;;;;;11.67;92.74;101810.72;20811998;28;19971;-64
2022/09/22 22:20:44;;;;;;;8.38;4.88;;;;;;;11.58;95.53;101806.00;20800433;28;19921;-63
2022/09/22 22:31:12;;;;;;;10.50;4.35;;;;;;;11.52;96.13;101803.69;20817921;28;20049;-64
2022/09/22 22:41:33;;;;;;;9.60;4.50;;;;;;;11.41;95.04;101792.97;20824912;28;20103;-64
2022/09/22 22:51:55;;;;;;;9.40;3.97;;;;;;;11.37;94.54;101791.41;20819452;28;20041;-63
2022/09/22 23:02:16;;;;;;;6.97;4.03;;;;;;;11.22;96.01;101781.78;20819909;28;20103;-64
2022/09/22 23:12:38;;;;;;;6.57;3.80;;;;;;;11.24;95.09;101769.50;20823329;28;20045;-64
2022/09/22 23:23:02;;;;;;;18.42;3.88;;;;;;;11.16;96.64;101761.25;20819587;28;20324;-63
2022/09/22 23:33:26;;;;;;;10.60;3.40;;;;;;;11.10;96.55;101761.53;20818551;28;20087;-63
2022/09/22 23:43:48;;;;;;;7.15;3.20;;;;;;;10.92;96.59;101746.84;20818989;28;20045;-64
2022/09/22 23:54:12;;;;;;;13.30;3.85;;;;;;;10.85;97.98;101735.03;20817949;28;20057;-64
